createdAt,value
2023-07-14T00:00:17.735Z,94863.88
2023-07-14T00:03:02.643Z,94865.75
2023-07-14T00:05:46.221Z,94863.88
2023-07-14T00:08:31.963Z,94853.91
2023-07-14T00:11:15.807Z,94855.78
2023-07-14T00:13:58.919Z,94850.31
2023-07-14T00:16:42.227Z,94850.09
2023-07-14T00:19:28.141Z,94843.63
2023-07-14T00:22:13.612Z,94851.38
2023-07-14T00:24:56.685Z,94848.13
2023-07-14T00:27:39.956Z,94845.69
2023-07-14T00:30:25.543Z,94847.97
2023-07-14T00:33:14.063Z,94850.59
2023-07-14T00:35:58.548Z,94849.72
2023-07-14T00:38:42.531Z,94850.41
2023-07-14T00:41:26.149Z,94836.09
2023-07-14T00:44:12.892Z,94825.22
2023-07-14T00:46:56.030Z,94828.91
2023-07-14T00:49:42.090Z,94835.38
2023-07-14T00:52:30.761Z,94866.13
2023-07-14T00:55:31.665Z,94875.13
2023-07-14T00:58:20.644Z,94887.88
2023-07-14T01:01:07.061Z,94894.63
2023-07-14T01:03:52.714Z,94899.03
2023-07-14T01:06:39.605Z,94902.75
2023-07-14T01:09:24.149Z,94919.88
2023-07-14T01:12:09.396Z,94926.66
2023-07-14T01:14:56.797Z,94918.91
2023-07-14T01:17:40.710Z,94917.94
2023-07-14T01:20:24.081Z,94916.56
2023-07-14T01:23:35.230Z,94922.75
2023-07-14T01:26:31.337Z,94917.22
2023-07-14T01:29:15.885Z,94928.69
2023-07-14T01:31:59.199Z,94920.22
2023-07-14T01:34:42.277Z,94914.22
2023-07-14T01:37:25.951Z,94917.97
2023-07-14T01:40:13.651Z,94911.38
2023-07-14T01:43:00.508Z,94902.78
2023-07-14T01:46:00.037Z,94908.56
2023-07-14T01:48:54.457Z,94907.97
2023-07-14T01:51:44.247Z,94900.28
2023-07-14T01:54:33.553Z,94900.44
2023-07-14T01:57:21.067Z,94901.53
2023-07-14T02:00:11.102Z,94905.38
2023-07-14T02:02:56.800Z,94908.31
2023-07-14T02:05:40.888Z,94906.16
2023-07-14T02:08:26.020Z,94913.78
2023-07-14T02:11:15.890Z,94911.88
2023-07-14T02:14:00.023Z,94912.47
2023-07-14T02:16:43.519Z,94926.56
2023-07-14T02:19:28.582Z,94933.56
2023-07-14T02:22:12.062Z,94945.50
2023-07-14T02:24:56.706Z,94956.66
2023-07-14T02:27:39.765Z,94970.56
2023-07-14T02:30:27.506Z,94975.06
2023-07-14T02:33:15.377Z,94992.06
2023-07-14T02:36:08.768Z,95000.84
2023-07-14T02:38:51.953Z,94988.72
2023-07-14T02:41:39.582Z,95000.34
2023-07-14T02:44:28.283Z,95018.31
2023-07-14T02:47:17.396Z,95027.41
2023-07-14T02:50:00.546Z,95026.31
2023-07-14T02:52:45.097Z,95030.88
2023-07-14T02:55:28.305Z,95026.06
2023-07-14T02:58:11.419Z,95031.97
2023-07-14T03:00:55.132Z,95029.94
2023-07-14T03:03:40.355Z,95019.78
2023-07-14T03:06:24.403Z,95016.91
2023-07-14T03:09:09.369Z,95019.13
2023-07-14T03:11:52.514Z,95033.38
2023-07-14T03:14:35.936Z,95028.69
2023-07-14T03:17:19.051Z,95020.25
2023-07-14T03:20:02.202Z,95017.59
2023-07-14T03:22:45.537Z,95012.59
2023-07-14T03:25:30.317Z,95029.75
2023-07-14T03:28:13.457Z,95030.28
2023-07-14T03:30:56.550Z,95042.66
2023-07-14T03:33:40.797Z,95032.41
2023-07-14T03:36:24.973Z,95039.03
2023-07-14T03:39:23.168Z,95051.38
2023-07-14T03:42:08.048Z,95043.38
2023-07-14T03:44:51.229Z,95044.72
2023-07-14T03:47:34.401Z,95049.19
2023-07-14T03:50:17.696Z,95056.47
2023-07-14T03:53:00.761Z,95063.50
2023-07-14T03:55:43.843Z,95077.19
2023-07-14T03:58:29.555Z,95092.41
2023-07-14T04:01:13.019Z,95081.59
2023-07-14T04:03:58.562Z,95065.63
2023-07-14T04:06:44.227Z,95072.94
2023-07-14T04:09:27.420Z,95081.81
2023-07-14T04:12:10.756Z,95089.13
2023-07-14T04:14:55.221Z,95095.41
2023-07-14T04:17:38.828Z,95095.84
2023-07-14T04:20:21.960Z,95098.44
2023-07-14T04:23:06.616Z,95100.50
2023-07-14T04:25:51.820Z,95109.94
2023-07-14T04:28:34.908Z,95110.88
2023-07-14T04:31:19.516Z,95126.19
2023-07-14T04:34:02.669Z,95126.19
2023-07-14T04:36:47.661Z,95126.19
2023-07-14T04:39:31.203Z,95138.31
2023-07-14T04:42:14.237Z,95145.00
2023-07-14T04:44:57.299Z,95142.34
2023-07-14T04:47:41.747Z,95150.44
2023-07-14T04:50:24.876Z,95155.69
2023-07-14T04:53:08.790Z,95146.44
2023-07-14T04:55:51.943Z,95147.53
2023-07-14T04:58:35.036Z,95150.88
2023-07-14T05:01:18.181Z,95148.22
2023-07-14T05:04:02.845Z,95158.28
2023-07-14T05:06:46.284Z,95153.88
2023-07-14T05:09:29.540Z,95145.56
2023-07-14T05:12:12.533Z,95146.34
2023-07-14T05:14:55.697Z,95142.03
2023-07-14T05:17:39.113Z,95138.53
2023-07-14T05:20:24.088Z,95142.81
2023-07-14T05:23:07.202Z,95144.38
2023-07-14T05:25:50.344Z,95154.47
2023-07-14T05:28:33.521Z,95156.31
2023-07-14T05:31:16.837Z,95162.09
2023-07-14T05:34:00.114Z,95162.34
2023-07-14T05:36:44.595Z,95164.47
2023-07-14T05:39:27.812Z,95175.31
2023-07-14T05:42:11.204Z,95171.03
2023-07-14T05:44:54.298Z,95172.84
2023-07-14T05:47:40.756Z,95171.69
2023-07-14T05:50:23.922Z,95184.34
2023-07-14T05:53:09.995Z,95184.09
2023-07-14T05:55:53.620Z,95180.13
2023-07-14T05:58:36.680Z,95179.06
2023-07-14T06:01:19.773Z,95178.47
2023-07-14T06:04:03.002Z,95173.06
2023-07-14T06:06:46.166Z,95172.13
2023-07-14T06:09:35.219Z,95169.13
2023-07-14T06:12:18.328Z,95172.44
2023-07-14T06:15:01.835Z,95179.63
2023-07-14T06:17:44.878Z,95174.56
2023-07-14T06:20:30.798Z,95175.28
2023-07-14T06:23:15.535Z,95173.84
2023-07-14T06:26:00.373Z,95170.31
2023-07-14T06:28:43.960Z,95161.13
2023-07-14T06:31:27.296Z,95169.34
2023-07-14T06:34:10.480Z,95165.50
2023-07-14T06:36:54.718Z,95162.06
2023-07-14T06:39:38.862Z,95158.19
2023-07-14T06:42:23.606Z,95158.28
2023-07-14T06:45:07.383Z,95163.94
2023-07-14T06:47:50.800Z,95158.59
2023-07-14T06:50:33.783Z,95166.34
2023-07-14T06:53:16.891Z,95169.38
2023-07-14T06:55:59.974Z,95161.06
2023-07-14T06:58:44.714Z,95168.31
2023-07-14T07:01:27.954Z,95167.78
2023-07-14T07:04:11.061Z,95167.91
2023-07-14T07:06:55.065Z,95172.94
2023-07-14T07:09:38.225Z,95175.06
2023-07-14T07:12:22.449Z,95180.09
2023-07-14T07:15:08.483Z,95179.41
2023-07-14T07:17:51.617Z,95174.19
2023-07-14T07:20:43.031Z,95184.91
2023-07-14T07:23:26.662Z,95181.66
2023-07-14T07:26:10.382Z,95171.81
2023-07-14T07:28:53.838Z,95170.22
2023-07-14T07:31:38.399Z,95167.34
2023-07-14T07:34:21.639Z,95165.28
2023-07-14T07:37:04.864Z,95168.97
2023-07-14T07:39:48.191Z,95173.13
2023-07-14T07:42:31.365Z,95166.94
2023-07-14T07:45:14.982Z,95159.63
2023-07-14T07:47:59.508Z,95155.13
2023-07-14T07:50:42.673Z,95155.38
2023-07-14T07:53:25.750Z,95153.47
2023-07-14T07:56:09.459Z,95145.44
2023-07-14T07:58:52.719Z,95151.13
2023-07-14T08:01:36.076Z,95150.63
2023-07-14T08:04:20.888Z,95151.53
2023-07-14T08:07:04.181Z,95140.75
2023-07-14T08:09:47.347Z,95140.69
2023-07-14T08:12:30.437Z,95128.22
2023-07-14T08:15:13.903Z,95128.41
2023-07-14T08:17:57.695Z,95137.13
2023-07-14T08:20:42.256Z,95132.78
2023-07-14T08:23:28.233Z,95129.00
2023-07-14T08:26:17.338Z,95130.53
2023-07-14T08:29:00.520Z,95127.84
2023-07-14T08:31:43.582Z,95131.72
2023-07-14T08:34:28.505Z,95136.66
2023-07-14T08:37:13.044Z,95127.88
2023-07-14T08:39:56.132Z,95127.41
2023-07-14T08:42:45.524Z,95121.59
2023-07-14T08:45:38.963Z,95119.25
2023-07-14T08:48:32.036Z,95112.09
2023-07-14T08:51:20.033Z,95113.94
2023-07-14T08:54:13.911Z,95124.50
2023-07-14T08:56:57.175Z,95110.19
2023-07-14T08:59:42.740Z,95115.59
2023-07-14T09:02:35.206Z,95106.47
2023-07-14T09:05:22.875Z,95105.69
2023-07-14T09:08:06.357Z,95102.31
2023-07-14T09:11:04.774Z,95101.31
2023-07-14T09:13:57.260Z,95108.47
2023-07-14T09:16:58.153Z,95104.78
2023-07-14T09:19:56.140Z,95090.38
2023-07-14T09:22:48.662Z,95093.91
2023-07-14T09:25:38.113Z,95083.81
2023-07-14T09:28:34.523Z,95082.59
2023-07-14T09:31:40.352Z,95074.78
2023-07-14T09:34:29.585Z,95073.97
2023-07-14T09:37:19.804Z,95077.81
2023-07-14T09:40:19.108Z,95074.56
2023-07-14T09:43:04.313Z,95073.13
2023-07-14T09:45:48.816Z,95069.50
2023-07-14T09:48:35.224Z,95071.31
2023-07-14T09:51:22.697Z,95075.59
2023-07-14T09:54:13.331Z,95069.41
2023-07-14T09:57:02.573Z,95068.94
2023-07-14T09:59:55.232Z,95060.41
2023-07-14T10:02:40.289Z,95063.31
2023-07-14T10:05:35.641Z,95060.88
2023-07-14T10:08:28.388Z,95052.25
2023-07-14T10:11:21.348Z,95046.38
2023-07-14T10:14:06.865Z,95049.78
2023-07-14T10:16:50.416Z,95047.84
2023-07-14T10:19:41.559Z,95046.44
2023-07-14T10:22:26.840Z,95038.03
2023-07-14T10:25:18.797Z,95040.44
2023-07-14T10:28:07.466Z,95032.06
2023-07-14T10:31:01.363Z,95030.69
2023-07-14T10:33:58.640Z,95031.38
2023-07-14T10:36:45.982Z,95025.56
2023-07-14T10:39:39.510Z,95029.50
2023-07-14T10:42:27.839Z,95023.28
2023-07-14T10:45:14.508Z,95012.56
2023-07-14T10:48:01.048Z,95011.13
2023-07-14T10:50:56.994Z,95013.91
2023-07-14T10:53:50.989Z,95012.66
2023-07-14T10:56:39.446Z,95018.72
2023-07-14T10:59:28.065Z,95006.88
2023-07-14T11:02:22.354Z,94995.91
2023-07-14T11:05:10.997Z,95001.06
2023-07-14T11:07:55.214Z,94998.88
2023-07-14T11:10:48.927Z,95004.34
2023-07-14T11:13:45.010Z,94996.03
2023-07-14T11:16:35.298Z,94991.72
2023-07-14T11:19:41.242Z,94994.84
2023-07-14T11:22:46.413Z,94991.69
2023-07-14T11:25:39.703Z,94989.69
2023-07-14T11:28:42.435Z,94989.72
2023-07-14T11:31:29.192Z,94991.47
2023-07-14T11:34:21.427Z,94989.72
2023-07-14T11:37:26.790Z,94988.75
2023-07-14T11:40:21.376Z,94977.13
2023-07-14T11:43:05.158Z,94980.72
2023-07-14T11:45:56.362Z,94982.84
2023-07-14T11:48:41.387Z,94976.63
2023-07-14T11:51:49.208Z,94974.09
2023-07-14T11:54:44.019Z,94974.09
2023-07-14T11:57:27.384Z,94976.22
2023-07-14T12:00:24.916Z,94973.69
2023-07-14T12:03:34.158Z,94972.91
2023-07-14T12:06:29.767Z,94968.66
2023-07-14T12:09:17.998Z,94970.59
2023-07-14T12:12:02.840Z,94975.41
2023-07-14T12:14:49.876Z,94973.06
2023-07-14T12:17:49.018Z,94971.69
2023-07-14T12:20:38.540Z,94966.84
2023-07-14T12:23:29.519Z,94968.88
2023-07-14T12:26:16.032Z,94960.78
2023-07-14T12:29:03.456Z,94966.47
2023-07-14T12:31:51.474Z,94958.88
2023-07-14T12:34:34.688Z,94967.56
2023-07-14T12:37:21.617Z,94957.03
2023-07-14T12:40:06.443Z,94957.69
2023-07-14T12:42:51.694Z,94952.56
2023-07-14T12:45:36.535Z,94953.19
2023-07-14T12:48:19.766Z,94945.78
2023-07-14T12:51:14.967Z,94932.81
2023-07-14T12:54:06.168Z,94943.78
2023-07-14T12:56:49.241Z,94939.34
2023-07-14T12:59:33.235Z,94929.91
2023-07-14T13:02:16.563Z,94931.66
2023-07-14T13:04:59.672Z,94931.97
2023-07-14T13:07:46.807Z,94932.25
2023-07-14T13:10:37.037Z,94924.53
2023-07-14T13:13:24.345Z,94931.38
2023-07-14T13:16:08.388Z,94917.84
2023-07-14T13:18:59.486Z,94922.50
2023-07-14T13:21:49.551Z,94921.56
2023-07-14T13:24:34.249Z,94919.13
2023-07-14T13:27:21.974Z,94920.34
2023-07-14T13:30:19.384Z,94916.53
2023-07-14T13:33:03.482Z,94916.09
2023-07-14T13:35:57.372Z,94915.28
2023-07-14T13:38:43.864Z,94916.88
2023-07-14T13:41:29.224Z,94906.25
2023-07-14T13:44:36.434Z,94909.59
2023-07-14T13:47:21.066Z,94906.66
2023-07-14T13:50:04.292Z,94902.50
2023-07-14T13:52:47.755Z,94909.09
2023-07-14T13:55:30.894Z,94906.72
2023-07-14T13:58:14.510Z,94901.53
2023-07-14T14:00:59.066Z,94901.09
2023-07-14T14:03:46.677Z,94896.50
2023-07-14T14:06:31.632Z,94898.53
2023-07-14T14:09:21.601Z,94897.75
2023-07-14T14:12:05.254Z,94894.00
2023-07-14T14:14:48.622Z,94896.47
2023-07-14T14:17:38.432Z,94884.75
2023-07-14T14:20:24.647Z,94887.75
2023-07-14T14:23:08.191Z,94886.47
2023-07-14T14:25:52.271Z,94894.28
2023-07-14T14:28:35.332Z,94891.81
2023-07-14T14:31:18.377Z,94893.22
2023-07-14T14:34:03.270Z,94886.97
2023-07-14T14:36:46.563Z,94888.25
2023-07-14T14:39:29.654Z,94880.47
2023-07-14T14:42:16.266Z,94885.00
2023-07-14T14:44:59.379Z,94884.88
2023-07-14T14:47:44.707Z,94885.19
2023-07-14T14:50:30.626Z,94878.13
2023-07-14T14:53:13.980Z,94879.25
2023-07-14T14:56:03.115Z,94880.63
2023-07-14T14:58:47.180Z,94877.81
2023-07-14T15:01:35.145Z,94874.97
2023-07-14T15:04:20.336Z,94870.72
2023-07-14T15:07:05.107Z,94872.41
2023-07-14T15:09:48.221Z,94871.13
2023-07-14T15:12:31.346Z,94862.91
2023-07-14T15:15:22.646Z,94866.75
2023-07-14T15:18:06.228Z,94862.09
2023-07-14T15:20:49.341Z,94873.69
2023-07-14T15:23:34.822Z,94874.06
2023-07-14T15:26:21.281Z,94883.84
2023-07-14T15:29:06.645Z,94884.44
2023-07-14T15:31:50.789Z,94878.91
2023-07-14T15:34:33.902Z,94886.38
2023-07-14T15:37:17.025Z,94891.56
2023-07-14T15:40:01.530Z,94893.63
2023-07-14T15:42:45.552Z,94894.34
2023-07-14T15:45:29.306Z,94893.47
2023-07-14T15:48:21.758Z,94883.47
2023-07-14T15:51:17.452Z,94896.91
2023-07-14T15:54:03.036Z,94897.16
2023-07-14T15:56:47.576Z,94894.19
2023-07-14T15:59:30.920Z,94899.09
2023-07-14T16:02:17.964Z,94897.28
2023-07-14T16:05:01.144Z,94902.69
2023-07-14T16:07:47.264Z,94908.53
2023-07-14T16:10:30.986Z,94910.59
2023-07-14T16:13:16.756Z,94913.84
2023-07-14T16:15:59.855Z,94918.56
2023-07-14T16:18:44.760Z,94914.25
2023-07-14T16:21:30.245Z,94931.22
2023-07-14T16:24:20.409Z,94928.97
2023-07-14T16:27:05.709Z,94931.44
2023-07-14T16:29:50.366Z,94929.31
2023-07-14T16:32:33.484Z,94939.47
2023-07-14T16:35:17.548Z,94941.25
2023-07-14T16:38:03.949Z,94935.03
2023-07-14T16:40:48.924Z,94935.22
2023-07-14T16:43:32.023Z,94946.81
2023-07-14T16:46:16.718Z,94948.63
2023-07-14T16:49:00.225Z,94953.50
2023-07-14T16:51:43.361Z,94951.94
2023-07-14T16:54:28.774Z,94961.72
2023-07-14T16:57:27.402Z,94964.41
2023-07-14T17:00:27.222Z,94967.72
2023-07-14T17:03:20.335Z,94967.25
2023-07-14T17:06:07.948Z,94974.41
2023-07-14T17:08:53.649Z,94970.03
2023-07-14T17:11:38.604Z,94972.38
2023-07-14T17:14:23.678Z,94979.06
2023-07-14T17:17:07.096Z,94972.84
2023-07-14T17:19:51.619Z,94973.38
2023-07-14T17:22:41.446Z,94982.38
2023-07-14T17:25:28.030Z,94983.72
2023-07-14T17:28:16.808Z,94984.00
2023-07-14T17:31:01.521Z,94992.75
2023-07-14T17:33:44.655Z,94985.56
2023-07-14T17:36:30.683Z,94992.09
2023-07-14T17:39:22.956Z,94984.19
2023-07-14T17:42:15.305Z,94999.91
2023-07-14T17:44:58.395Z,95001.22
2023-07-14T17:47:41.536Z,94997.19
2023-07-14T17:50:25.406Z,94993.16
2023-07-14T17:53:13.917Z,94991.78
2023-07-14T17:55:58.262Z,95007.34
2023-07-14T17:58:41.419Z,95009.38
2023-07-14T18:01:24.692Z,95010.69
2023-07-14T18:04:07.792Z,95008.53
2023-07-14T18:06:51.390Z,95012.50
2023-07-14T18:09:35.888Z,95010.47
2023-07-14T18:12:20.289Z,95013.44
2023-07-14T18:15:04.886Z,95026.81
2023-07-14T18:17:48.106Z,95029.69
2023-07-14T18:20:34.469Z,95035.00
2023-07-14T18:23:22.343Z,95032.06
2023-07-14T18:26:06.924Z,95053.09
2023-07-14T18:28:50.140Z,95053.88
2023-07-14T18:31:33.329Z,95051.84
2023-07-14T18:34:18.587Z,95060.03
2023-07-14T18:37:02.142Z,95060.19
2023-07-14T18:39:48.154Z,95069.63
2023-07-14T18:42:33.163Z,95070.25
2023-07-14T18:45:17.735Z,95077.63
2023-07-14T18:48:16.963Z,95079.03
2023-07-14T18:51:15.106Z,95076.06
2023-07-14T18:54:00.832Z,95082.50
2023-07-14T18:56:43.919Z,95072.16
2023-07-14T18:59:29.362Z,95077.50
2023-07-14T19:02:28.169Z,95083.00
2023-07-14T19:05:13.867Z,95090.06
2023-07-14T19:07:57.639Z,95088.31
2023-07-14T19:10:41.494Z,95088.97
2023-07-14T19:13:24.730Z,95087.50
2023-07-14T19:16:10.809Z,95091.72
2023-07-14T19:18:54.379Z,95089.84
2023-07-14T19:21:37.633Z,95091.59
2023-07-14T19:24:21.384Z,95087.38
2023-07-14T19:27:04.934Z,95086.41
2023-07-14T19:29:49.308Z,95092.38
2023-07-14T19:32:34.862Z,95091.09
2023-07-14T19:35:19.718Z,95092.97
2023-07-14T19:38:02.736Z,95093.94
2023-07-14T19:40:46.127Z,95092.66
2023-07-14T19:43:29.641Z,95100.16
2023-07-14T19:46:14.172Z,95097.06
2023-07-14T19:49:00.396Z,95095.00
2023-07-14T19:51:45.765Z,95093.44
2023-07-14T19:54:28.833Z,95097.84
2023-07-14T19:57:16.252Z,95096.25
2023-07-14T19:59:59.456Z,95094.38
2023-07-14T20:02:45.475Z,95090.13
2023-07-14T20:05:30.225Z,95099.03
2023-07-14T20:08:13.412Z,95090.56
2023-07-14T20:11:00.677Z,95087.72
2023-07-14T20:13:44.696Z,95097.88
2023-07-14T20:16:28.703Z,95100.09
2023-07-14T20:19:11.805Z,95094.91
2023-07-14T20:21:56.304Z,95098.19
2023-07-14T20:24:39.374Z,95104.72
2023-07-14T20:27:24.315Z,95116.91
2023-07-14T20:30:15.248Z,95106.72
2023-07-14T20:32:58.408Z,95099.00
2023-07-14T20:35:41.637Z,95105.06
2023-07-14T20:38:27.529Z,95102.66
2023-07-14T20:41:19.824Z,95112.94
2023-07-14T20:44:03.443Z,95106.66
2023-07-14T20:46:46.635Z,95110.19
2023-07-14T20:49:29.703Z,95109.84
2023-07-14T20:52:20.081Z,95118.09
2023-07-14T20:55:06.921Z,95115.09
2023-07-14T20:57:52.237Z,95115.09
2023-07-14T21:00:35.420Z,95110.09
2023-07-14T21:03:21.510Z,95114.91
2023-07-14T21:06:05.701Z,95111.94
2023-07-14T21:08:49.448Z,95108.28
2023-07-14T21:11:33.938Z,95122.75
2023-07-14T21:14:18.438Z,95115.97
2023-07-14T21:17:01.659Z,95120.22
2023-07-14T21:19:44.782Z,95123.91
2023-07-14T21:22:30.581Z,95124.63
2023-07-14T21:25:18.370Z,95124.03
2023-07-14T21:28:02.881Z,95129.16
2023-07-14T21:30:48.090Z,95123.28
2023-07-14T21:33:33.856Z,95131.38
2023-07-14T21:36:19.965Z,95125.75
2023-07-14T21:39:03.057Z,95132.88
2023-07-14T21:41:46.164Z,95131.19
2023-07-14T21:44:31.122Z,95137.91
2023-07-14T21:47:14.738Z,95138.03
2023-07-14T21:49:57.921Z,95138.09
2023-07-14T21:52:40.986Z,95133.00
2023-07-14T21:55:24.120Z,95139.47
2023-07-14T21:58:14.299Z,95136.94
2023-07-14T22:01:00.425Z,95137.13
2023-07-14T22:03:43.762Z,95136.34
2023-07-14T22:06:29.507Z,95131.63
2023-07-14T22:09:12.711Z,95140.94
2023-07-14T22:11:56.286Z,95133.78
2023-07-14T22:14:40.059Z,95137.09
2023-07-14T22:17:24.636Z,95133.88
2023-07-14T22:20:09.615Z,95138.47
2023-07-14T22:22:52.718Z,95127.50
2023-07-14T22:25:35.847Z,95128.69
2023-07-14T22:28:22.233Z,95132.09
2023-07-14T22:31:05.381Z,95126.31
2023-07-14T22:33:50.803Z,95130.31
2023-07-14T22:36:33.967Z,95132.06
2023-07-14T22:39:20.228Z,95134.56
2023-07-14T22:42:04.046Z,95130.03
2023-07-14T22:44:47.120Z,95135.13
2023-07-14T22:47:30.185Z,95131.44
2023-07-14T22:50:16.591Z,95125.50
2023-07-14T22:52:59.621Z,95125.19
2023-07-14T22:55:42.733Z,95126.09
2023-07-14T22:58:28.939Z,95128.78
2023-07-14T23:01:17.992Z,95126.09
2023-07-14T23:04:01.528Z,95115.13
2023-07-14T23:06:45.968Z,95125.03
2023-07-14T23:09:29.007Z,95124.25
2023-07-14T23:12:17.040Z,95120.94
2023-07-14T23:15:00.145Z,95115.72
2023-07-14T23:17:43.426Z,95122.09
2023-07-14T23:20:26.462Z,95115.59
2023-07-14T23:23:13.301Z,95119.31
2023-07-14T23:25:57.392Z,95110.44
2023-07-14T23:28:41.038Z,95114.53
2023-07-14T23:31:27.557Z,95110.03
2023-07-14T23:34:12.520Z,95109.25
2023-07-14T23:36:55.740Z,95108.03
2023-07-14T23:39:40.255Z,95106.34
2023-07-14T23:42:23.384Z,95106.31
2023-07-14T23:45:09.688Z,95104.38
2023-07-14T23:47:54.179Z,95114.31
2023-07-14T23:50:38.627Z,95111.53
2023-07-14T23:53:33.994Z,95115.63
2023-07-14T23:56:18.574Z,95114.00
2023-07-14T23:59:01.765Z,95119.69
